sensor_id;sensor_type;location;lat;lon;timestamp;P1;durP1;ratioP1;P2;durP2;ratioP2
13872;SDS011;7006;51.494;11.964;2022-07-23T00:00:01;11.07;;;9.00;;
13872;SDS011;7006;51.494;11.964;2022-07-23T00:02:29;11.03;;;9.30;;
13872;SDS011;7006;51.494;11.964;2022-07-23T00:04:56;12.60;;;8.83;;
13872;SDS011;7006;51.494;11.964;2022-07-23T00:07:22;11.73;;;8.47;;
13872;SDS011;7006;51.494;11.964;2022-07-23T00:09:49;10.30;;;9.20;;
13872;SDS011;7006;51.494;11.964;2022-07-23T00:12:16;12.00;;;9.00;;
13872;SDS011;7006;51.494;11.964;2022-07-23T00:14:42;10.97;;;9.23;;
13872;SDS011;7006;51.494;11.964;2022-07-23T00:17:09;10.20;;;9.20;;
13872;SDS011;7006;51.494;11.964;2022-07-23T00:19:36;12.17;;;9.27;;
13872;SDS011;7006;51.494;11.964;2022-07-23T00:22:03;9.10;;;8.20;;
13872;SDS011;7006;51.494;11.964;2022-07-23T00:24:29;11.30;;;9.50;;
13872;SDS011;7006;51.494;11.964;2022-07-23T00:26:56;9.77;;;8.77;;
13872;SDS011;7006;51.494;11.964;2022-07-23T00:29:22;11.17;;;9.70;;
13872;SDS011;7006;51.494;11.964;2022-07-23T00:31:49;11.50;;;9.33;;
13872;SDS011;7006;51.494;11.964;2022-07-23T00:34:15;9.83;;;8.60;;
13872;SDS011;7006;51.494;11.964;2022-07-23T00:36:43;10.67;;;9.00;;
13872;SDS011;7006;51.494;11.964;2022-07-23T00:39:10;10.40;;;9.20;;
13872;SDS011;7006;51.494;11.964;2022-07-23T00:41:36;9.83;;;8.67;;
13872;SDS011;7006;51.494;11.964;2022-07-23T00:44:15;11.17;;;9.53;;
13872;SDS011;7006;51.494;11.964;2022-07-23T00:46:46;10.53;;;8.30;;
13872;SDS011;7006;51.494;11.964;2022-07-23T00:49:13;8.97;;;8.07;;
13872;SDS011;7006;51.494;11.964;2022-07-23T00:51:40;10.73;;;9.37;;
13872;SDS011;7006;51.494;11.964;2022-07-23T00:54:09;9.50;;;8.60;;
13872;SDS011;7006;51.494;11.964;2022-07-23T00:56:35;12.93;;;9.47;;
13872;SDS011;7006;51.494;11.964;2022-07-23T00:59:03;11.03;;;8.73;;
13872;SDS011;7006;51.494;11.964;2022-07-23T01:01:29;10.60;;;8.33;;
13872;SDS011;7006;51.494;11.964;2022-07-23T01:03:56;10.97;;;9.57;;
13872;SDS011;7006;51.494;11.964;2022-07-23T01:06:22;9.30;;;8.40;;
13872;SDS011;7006;51.494;11.964;2022-07-23T01:08:49;10.20;;;9.20;;
13872;SDS011;7006;51.494;11.964;2022-07-23T01:11:16;10.83;;;9.20;;
13872;SDS011;7006;51.494;11.964;2022-07-23T01:13:44;10.73;;;8.50;;
13872;SDS011;7006;51.494;11.964;2022-07-23T01:16:10;10.27;;;9.17;;
13872;SDS011;7006;51.494;11.964;2022-07-23T01:18:37;9.83;;;8.50;;
13872;SDS011;7006;51.494;11.964;2022-07-23T01:21:03;9.77;;;8.87;;
13872;SDS011;7006;51.494;11.964;2022-07-23T01:23:31;10.40;;;9.17;;
13872;SDS011;7006;51.494;11.964;2022-07-23T01:25:58;11.00;;;9.67;;
13872;SDS011;7006;51.494;11.964;2022-07-23T01:28:24;10.73;;;9.60;;
13872;SDS011;7006;51.494;11.964;2022-07-23T01:30:51;10.03;;;8.83;;
13872;SDS011;7006;51.494;11.964;2022-07-23T01:33:17;12.13;;;9.00;;
13872;SDS011;7006;51.494;11.964;2022-07-23T01:35:44;10.43;;;9.13;;
13872;SDS011;7006;51.494;11.964;2022-07-23T01:38:10;12.77;;;9.70;;
13872;SDS011;7006;51.494;11.964;2022-07-23T01:40:38;11.13;;;8.60;;
13872;SDS011;7006;51.494;11.964;2022-07-23T01:43:05;9.33;;;8.33;;
13872;SDS011;7006;51.494;11.964;2022-07-23T01:45:31;10.83;;;8.50;;
13872;SDS011;7006;51.494;11.964;2022-07-23T01:47:58;10.80;;;8.97;;
13872;SDS011;7006;51.494;11.964;2022-07-23T01:50:24;11.43;;;8.50;;
13872;SDS011;7006;51.494;11.964;2022-07-23T01:52:50;9.17;;;8.27;;
13872;SDS011;7006;51.494;11.964;2022-07-23T01:55:17;8.77;;;7.93;;
13872;SDS011;7006;51.494;11.964;2022-07-23T01:57:45;9.40;;;8.50;;
13872;SDS011;7006;51.494;11.964;2022-07-23T02:00:12;10.20;;;9.20;;
13872;SDS011;7006;51.494;11.964;2022-07-23T02:02:38;10.33;;;8.90;;
13872;SDS011;7006;51.494;11.964;2022-07-23T02:05:05;10.10;;;9.00;;
13872;SDS011;7006;51.494;11.964;2022-07-23T02:07:32;12.90;;;9.50;;
13872;SDS011;7006;51.494;11.964;2022-07-23T02:09:58;10.47;;;9.50;;
13872;SDS011;7006;51.494;11.964;2022-07-23T02:12:25;12.83;;;9.40;;
13872;SDS011;7006;51.494;11.964;2022-07-23T02:14:53;12.47;;;9.30;;
13872;SDS011;7006;51.494;11.964;2022-07-23T02:17:19;9.57;;;8.40;;
13872;SDS011;7006;51.494;11.964;2022-07-23T02:19:46;10.67;;;9.67;;
13872;SDS011;7006;51.494;11.964;2022-07-23T02:22:12;10.33;;;9.33;;
13872;SDS011;7006;51.494;11.964;2022-07-23T02:24:39;10.20;;;9.10;;
13872;SDS011;7006;51.494;11.964;2022-07-23T02:27:05;10.30;;;9.20;;
13872;SDS011;7006;51.494;11.964;2022-07-23T02:29:32;10.30;;;9.30;;
13872;SDS011;7006;51.494;11.964;2022-07-23T02:32:00;11.17;;;10.07;;
13872;SDS011;7006;51.494;11.964;2022-07-23T02:34:27;10.83;;;9.13;;
13872;SDS011;7006;51.494;11.964;2022-07-23T02:36:53;9.90;;;8.93;;
13872;SDS011;7006;51.494;11.964;2022-07-23T02:39:19;10.27;;;8.80;;
13872;SDS011;7006;51.494;11.964;2022-07-23T02:41:46;10.63;;;9.53;;
13872;SDS011;7006;51.494;11.964;2022-07-23T02:44:12;10.30;;;8.23;;
13872;SDS011;7006;51.494;11.964;2022-07-23T02:46:39;13.17;;;8.63;;
13872;SDS011;7006;51.494;11.964;2022-07-23T02:49:07;10.70;;;9.20;;
13872;SDS011;7006;51.494;11.964;2022-07-23T02:51:33;9.60;;;7.67;;
13872;SDS011;7006;51.494;11.964;2022-07-23T02:54:00;9.53;;;8.43;;
13872;SDS011;7006;51.494;11.964;2022-07-23T02:56:26;10.30;;;8.40;;
13872;SDS011;7006;51.494;11.964;2022-07-23T02:58:52;9.17;;;8.00;;
13872;SDS011;7006;51.494;11.964;2022-07-23T03:01:19;10.20;;;8.70;;
13872;SDS011;7006;51.494;11.964;2022-07-23T03:03:45;9.73;;;8.70;;
13872;SDS011;7006;51.494;11.964;2022-07-23T03:06:13;10.50;;;9.40;;
13872;SDS011;7006;51.494;11.964;2022-07-23T03:08:40;10.60;;;8.80;;
13872;SDS011;7006;51.494;11.964;2022-07-23T03:11:06;9.10;;;8.20;;
13872;SDS011;7006;51.494;11.964;2022-07-23T03:13:36;10.77;;;8.67;;
13872;SDS011;7006;51.494;11.964;2022-07-23T03:16:02;11.77;;;9.77;;
13872;SDS011;7006;51.494;11.964;2022-07-23T03:18:29;11.23;;;9.23;;
13872;SDS011;7006;51.494;11.964;2022-07-23T03:20:56;10.40;;;8.50;;
13872;SDS011;7006;51.494;11.964;2022-07-23T03:23:24;9.43;;;8.53;;
13872;SDS011;7006;51.494;11.964;2022-07-23T03:25:50;12.73;;;9.57;;
13872;SDS011;7006;51.494;11.964;2022-07-23T03:28:17;10.30;;;9.10;;
13872;SDS011;7006;51.494;11.964;2022-07-23T03:30:44;10.33;;;9.23;;
13872;SDS011;7006;51.494;11.964;2022-07-23T03:33:11;10.60;;;9.17;;
13872;SDS011;7006;51.494;11.964;2022-07-23T03:35:38;11.07;;;9.90;;
13872;SDS011;7006;51.494;11.964;2022-07-23T03:38:04;11.13;;;9.57;;
13872;SDS011;7006;51.494;11.964;2022-07-23T03:40:32;12.40;;;9.50;;
13872;SDS011;7006;51.494;11.964;2022-07-23T03:42:59;11.03;;;9.33;;
13872;SDS011;7006;51.494;11.964;2022-07-23T03:45:26;12.37;;;9.80;;
13872;SDS011;7006;51.494;11.964;2022-07-23T03:47:52;10.80;;;8.97;;
13872;SDS011;7006;51.494;11.964;2022-07-23T03:50:19;10.20;;;9.10;;
13872;SDS011;7006;51.494;11.964;2022-07-23T03:52:46;11.57;;;9.30;;
13872;SDS011;7006;51.494;11.964;2022-07-23T03:55:13;10.90;;;8.93;;
13872;SDS011;7006;51.494;11.964;2022-07-23T03:57:41;12.20;;;10.10;;
13872;SDS011;7006;51.494;11.964;2022-07-23T04:00:09;11.80;;;10.53;;
13872;SDS011;7006;51.494;11.964;2022-07-23T04:02:36;12.07;;;10.87;;
13872;SDS011;7006;51.494;11.964;2022-07-23T04:05:03;13.93;;;12.03;;
13872;SDS011;7006;51.494;11.964;2022-07-23T04:07:30;23.07;;;14.50;;
13872;SDS011;7006;51.494;11.964;2022-07-23T04:09:57;23.50;;;16.63;;
13872;SDS011;7006;51.494;11.964;2022-07-23T04:12:23;25.17;;;17.90;;
13872;SDS011;7006;51.494;11.964;2022-07-23T04:14:53;22.50;;;16.87;;
13872;SDS011;7006;51.494;11.964;2022-07-23T04:17:19;26.73;;;18.57;;
13872;SDS011;7006;51.494;11.964;2022-07-23T04:19:46;23.17;;;18.03;;
13872;SDS011;7006;51.494;11.964;2022-07-23T04:22:13;20.27;;;15.13;;
13872;SDS011;7006;51.494;11.964;2022-07-23T04:24:39;17.70;;;13.93;;
13872;SDS011;7006;51.494;11.964;2022-07-23T04:27:06;20.30;;;17.20;;
13872;SDS011;7006;51.494;11.964;2022-07-23T04:29:32;18.13;;;16.20;;
13872;SDS011;7006;51.494;11.964;2022-07-23T04:32:00;15.50;;;13.53;;
13872;SDS011;7006;51.494;11.964;2022-07-23T04:34:27;17.83;;;14.77;;
13872;SDS011;7006;51.494;11.964;2022-07-23T04:36:53;16.27;;;14.53;;
13872;SDS011;7006;51.494;11.964;2022-07-23T04:39:20;17.33;;;14.67;;
13872;SDS011;7006;51.494;11.964;2022-07-23T04:41:47;17.17;;;14.23;;
13872;SDS011;7006;51.494;11.964;2022-07-23T04:44:13;16.90;;;14.87;;
13872;SDS011;7006;51.494;11.964;2022-07-23T04:46:40;16.00;;;13.50;;
13872;SDS011;7006;51.494;11.964;2022-07-23T04:49:08;17.00;;;14.50;;
13872;SDS011;7006;51.494;11.964;2022-07-23T04:51:34;15.43;;;12.77;;
13872;SDS011;7006;51.494;11.964;2022-07-23T04:54:01;18.77;;;14.20;;
13872;SDS011;7006;51.494;11.964;2022-07-23T04:56:27;18.33;;;13.80;;
13872;SDS011;7006;51.494;11.964;2022-07-23T04:58:54;14.80;;;13.23;;
13872;SDS011;7006;51.494;11.964;2022-07-23T05:01:20;15.27;;;13.67;;
13872;SDS011;7006;51.494;11.964;2022-07-23T05:03:47;15.83;;;14.00;;
13872;SDS011;7006;51.494;11.964;2022-07-23T05:06:15;16.40;;;14.30;;
13872;SDS011;7006;51.494;11.964;2022-07-23T05:08:42;19.73;;;13.27;;
13872;SDS011;7006;51.494;11.964;2022-07-23T05:11:08;15.37;;;13.80;;
13872;SDS011;7006;51.494;11.964;2022-07-23T05:13:35;15.20;;;13.67;;
13872;SDS011;7006;51.494;11.964;2022-07-23T05:16:01;18.23;;;13.53;;
13872;SDS011;7006;51.494;11.964;2022-07-23T05:18:27;17.60;;;13.83;;
13872;SDS011;7006;51.494;11.964;2022-07-23T05:20:54;16.07;;;13.43;;
13872;SDS011;7006;51.494;11.964;2022-07-23T05:23:22;17.57;;;14.23;;
13872;SDS011;7006;51.494;11.964;2022-07-23T05:25:49;18.83;;;14.30;;
13872;SDS011;7006;51.494;11.964;2022-07-23T05:28:16;15.13;;;13.40;;
13872;SDS011;7006;51.494;11.964;2022-07-23T05:30:42;19.47;;;15.30;;
13872;SDS011;7006;51.494;11.964;2022-07-23T05:33:09;18.30;;;15.57;;
13872;SDS011;7006;51.494;11.964;2022-07-23T05:35:35;18.57;;;16.57;;
13872;SDS011;7006;51.494;11.964;2022-07-23T05:38:02;18.00;;;15.83;;
13872;SDS011;7006;51.494;11.964;2022-07-23T05:40:30;24.83;;;18.07;;
13872;SDS011;7006;51.494;11.964;2022-07-23T05:42:58;22.77;;;16.37;;
13872;SDS011;7006;51.494;11.964;2022-07-23T05:45:24;20.20;;;16.47;;
13872;SDS011;7006;51.494;11.964;2022-07-23T05:47:50;18.20;;;15.10;;
13872;SDS011;7006;51.494;11.964;2022-07-23T05:50:17;16.80;;;14.77;;
13872;SDS011;7006;51.494;11.964;2022-07-23T05:52:44;18.50;;;15.47;;
13872;SDS011;7006;51.494;11.964;2022-07-23T05:55:10;19.97;;;15.57;;
13872;SDS011;7006;51.494;11.964;2022-07-23T05:57:39;18.77;;;14.27;;
13872;SDS011;7006;51.494;11.964;2022-07-23T06:00:06;20.40;;;15.60;;
13872;SDS011;7006;51.494;11.964;2022-07-23T06:02:34;21.30;;;16.57;;
13872;SDS011;7006;51.494;11.964;2022-07-23T06:05:01;18.80;;;15.50;;
13872;SDS011;7006;51.494;11.964;2022-07-23T06:07:27;17.90;;;15.93;;
13872;SDS011;7006;51.494;11.964;2022-07-23T06:09:54;21.30;;;14.90;;
13872;SDS011;7006;51.494;11.964;2022-07-23T06:12:20;18.60;;;15.60;;
13872;SDS011;7006;51.494;11.964;2022-07-23T06:14:49;16.80;;;15.10;;
13872;SDS011;7006;51.494;11.964;2022-07-23T06:17:17;17.70;;;15.63;;
13872;SDS011;7006;51.494;11.964;2022-07-23T06:19:43;15.73;;;14.10;;
13872;SDS011;7006;51.494;11.964;2022-07-23T06:22:10;17.03;;;15.23;;
13872;SDS011;7006;51.494;11.964;2022-07-23T06:24:37;17.27;;;15.27;;
13872;SDS011;7006;51.494;11.964;2022-07-23T06:27:04;19.33;;;16.10;;
13872;SDS011;7006;51.494;11.964;2022-07-23T06:29:30;16.80;;;15.00;;
13872;SDS011;7006;51.494;11.964;2022-07-23T06:31:58;16.77;;;14.67;;
13872;SDS011;7006;51.494;11.964;2022-07-23T06:34:24;17.47;;;14.77;;
13872;SDS011;7006;51.494;11.964;2022-07-23T06:36:51;19.93;;;15.77;;
13872;SDS011;7006;51.494;11.964;2022-07-23T06:39:18;17.17;;;14.90;;
13872;SDS011;7006;51.494;11.964;2022-07-23T06:41:44;16.00;;;14.30;;
13872;SDS011;7006;51.494;11.964;2022-07-23T06:44:11;19.10;;;15.20;;
13872;SDS011;7006;51.494;11.964;2022-07-23T06:46:37;17.17;;;15.37;;
13872;SDS011;7006;51.494;11.964;2022-07-23T06:49:05;17.33;;;15.27;;
13872;SDS011;7006;51.494;11.964;2022-07-23T06:51:32;18.33;;;15.93;;
13872;SDS011;7006;51.494;11.964;2022-07-23T06:53:58;17.87;;;15.37;;
13872;SDS011;7006;51.494;11.964;2022-07-23T06:56:25;18.10;;;15.40;;
13872;SDS011;7006;51.494;11.964;2022-07-23T06:58:51;18.73;;;16.20;;
13872;SDS011;7006;51.494;11.964;2022-07-23T07:01:18;21.27;;;17.33;;
13872;SDS011;7006;51.494;11.964;2022-07-23T07:03:44;20.30;;;17.67;;
13872;SDS011;7006;51.494;11.964;2022-07-23T07:06:13;21.57;;;17.70;;
13872;SDS011;7006;51.494;11.964;2022-07-23T07:08:39;22.03;;;18.63;;
13872;SDS011;7006;51.494;11.964;2022-07-23T07:11:08;20.60;;;18.40;;
13872;SDS011;7006;51.494;11.964;2022-07-23T07:13:34;21.97;;;19.40;;
13872;SDS011;7006;51.494;11.964;2022-07-23T07:16:01;20.97;;;18.33;;
13872;SDS011;7006;51.494;11.964;2022-07-23T07:18:27;20.63;;;18.47;;
13872;SDS011;7006;51.494;11.964;2022-07-23T07:20:54;21.67;;;18.53;;
13872;SDS011;7006;51.494;11.964;2022-07-23T07:23:22;20.90;;;18.30;;
13872;SDS011;7006;51.494;11.964;2022-07-23T07:25:48;21.90;;;19.10;;
13872;SDS011;7006;51.494;11.964;2022-07-23T07:28:15;21.23;;;18.97;;
13872;SDS011;7006;51.494;11.964;2022-07-23T07:30:41;19.60;;;17.47;;
13872;SDS011;7006;51.494;11.964;2022-07-23T07:33:08;20.33;;;18.00;;
13872;SDS011;7006;51.494;11.964;2022-07-23T07:35:34;23.40;;;18.30;;
13872;SDS011;7006;51.494;11.964;2022-07-23T07:38:01;20.23;;;18.13;;
13872;SDS011;7006;51.494;11.964;2022-07-23T07:40:29;21.73;;;17.90;;
13872;SDS011;7006;51.494;11.964;2022-07-23T07:42:55;20.30;;;17.00;;
13872;SDS011;7006;51.494;11.964;2022-07-23T07:45:23;21.70;;;18.97;;
13872;SDS011;7006;51.494;11.964;2022-07-23T07:47:50;22.63;;;18.73;;
13872;SDS011;7006;51.494;11.964;2022-07-23T07:50:17;22.47;;;19.77;;
13872;SDS011;7006;51.494;11.964;2022-07-23T07:52:43;21.43;;;18.90;;
13872;SDS011;7006;51.494;11.964;2022-07-23T07:55:10;21.80;;;19.30;;
13872;SDS011;7006;51.494;11.964;2022-07-23T07:57:38;21.43;;;19.20;;
13872;SDS011;7006;51.494;11.964;2022-07-23T08:00:06;22.37;;;20.00;;
13872;SDS011;7006;51.494;11.964;2022-07-23T08:02:39;21.67;;;19.37;;
13872;SDS011;7006;51.494;11.964;2022-07-23T08:05:07;22.43;;;20.07;;
13872;SDS011;7006;51.494;11.964;2022-07-23T08:07:34;24.77;;;21.60;;
13872;SDS011;7006;51.494;11.964;2022-07-23T08:10:00;21.60;;;19.30;;
13872;SDS011;7006;51.494;11.964;2022-07-23T08:12:27;23.23;;;20.37;;
13872;SDS011;7006;51.494;11.964;2022-07-23T08:14:55;20.80;;;18.23;;
13872;SDS011;7006;51.494;11.964;2022-07-23T08:17:21;24.33;;;20.53;;
13872;SDS011;7006;51.494;11.964;2022-07-23T08:19:48;25.27;;;19.30;;
13872;SDS011;7006;51.494;11.964;2022-07-23T08:22:14;25.40;;;20.30;;
13872;SDS011;7006;51.494;11.964;2022-07-23T08:24:41;20.00;;;17.90;;
13872;SDS011;7006;51.494;11.964;2022-07-23T08:27:07;23.03;;;18.57;;
13872;SDS011;7006;51.494;11.964;2022-07-23T08:29:34;20.93;;;18.63;;
13872;SDS011;7006;51.494;11.964;2022-07-23T08:32:01;17.17;;;15.47;;
13872;SDS011;7006;51.494;11.964;2022-07-23T08:34:28;22.53;;;17.53;;
13872;SDS011;7006;51.494;11.964;2022-07-23T08:36:55;20.07;;;16.30;;
13872;SDS011;7006;51.494;11.964;2022-07-23T08:39:21;19.20;;;16.67;;
13872;SDS011;7006;51.494;11.964;2022-07-23T08:41:48;21.20;;;17.37;;
13872;SDS011;7006;51.494;11.964;2022-07-23T08:44:15;18.40;;;16.50;;
13872;SDS011;7006;51.494;11.964;2022-07-23T08:46:43;21.63;;;17.03;;
13872;SDS011;7006;51.494;11.964;2022-07-23T08:49:11;19.00;;;16.93;;
13872;SDS011;7006;51.494;11.964;2022-07-23T08:51:38;20.03;;;16.97;;
13872;SDS011;7006;51.494;11.964;2022-07-23T08:54:05;20.43;;;18.23;;
13872;SDS011;7006;51.494;11.964;2022-07-23T08:56:31;18.77;;;16.77;;
13872;SDS011;7006;51.494;11.964;2022-07-23T08:58:58;20.30;;;18.20;;
13872;SDS011;7006;51.494;11.964;2022-07-23T09:01:24;19.50;;;17.40;;
13872;SDS011;7006;51.494;11.964;2022-07-23T09:03:52;23.83;;;16.90;;
13872;SDS011;7006;51.494;11.964;2022-07-23T09:06:20;18.63;;;16.70;;
13872;SDS011;7006;51.494;11.964;2022-07-23T09:08:46;19.77;;;17.77;;
13872;SDS011;7006;51.494;11.964;2022-07-23T09:11:13;21.60;;;19.27;;
13872;SDS011;7006;51.494;11.964;2022-07-23T09:13:42;23.13;;;20.23;;
13872;SDS011;7006;51.494;11.964;2022-07-23T09:16:14;23.53;;;20.97;;
13872;SDS011;7006;51.494;11.964;2022-07-23T09:18:42;24.90;;;22.40;;
13872;SDS011;7006;51.494;11.964;2022-07-23T09:21:11;25.23;;;22.50;;
13872;SDS011;7006;51.494;11.964;2022-07-23T09:23:41;27.23;;;23.17;;
13872;SDS011;7006;51.494;11.964;2022-07-23T09:29:11;27.20;;;24.30;;
13872;SDS011;7006;51.494;11.964;2022-07-23T09:31:43;31.30;;;25.03;;
13872;SDS011;7006;51.494;11.964;2022-07-23T09:34:12;30.20;;;26.93;;
13872;SDS011;7006;51.494;11.964;2022-07-23T09:36:41;30.50;;;27.00;;
13872;SDS011;7006;51.494;11.964;2022-07-23T09:39:09;31.10;;;27.07;;
13872;SDS011;7006;51.494;11.964;2022-07-23T09:41:38;32.57;;;28.80;;
13872;SDS011;7006;51.494;11.964;2022-07-23T09:44:06;32.77;;;29.23;;
13872;SDS011;7006;51.494;11.964;2022-07-23T09:46:34;35.67;;;30.20;;
13872;SDS011;7006;51.494;11.964;2022-07-23T09:49:09;33.17;;;29.57;;
13872;SDS011;7006;51.494;11.964;2022-07-23T09:51:42;33.97;;;29.47;;
13872;SDS011;7006;51.494;11.964;2022-07-23T09:54:20;31.97;;;27.47;;
13872;SDS011;7006;51.494;11.964;2022-07-23T09:56:51;35.13;;;29.33;;
13872;SDS011;7006;51.494;11.964;2022-07-23T09:59:18;28.17;;;25.27;;
13872;SDS011;7006;51.494;11.964;2022-07-23T10:01:49;27.77;;;23.80;;
13872;SDS011;7006;51.494;11.964;2022-07-23T10:04:17;26.93;;;23.73;;
13872;SDS011;7006;51.494;11.964;2022-07-23T10:06:44;26.87;;;24.07;;
13872;SDS011;7006;51.494;11.964;2022-07-23T10:09:11;24.20;;;21.30;;
13872;SDS011;7006;51.494;11.964;2022-07-23T10:11:40;25.77;;;23.00;;
13872;SDS011;7006;51.494;11.964;2022-07-23T10:14:06;24.07;;;21.47;;
13872;SDS011;7006;51.494;11.964;2022-07-23T10:16:33;22.63;;;19.83;;
13872;SDS011;7006;51.494;11.964;2022-07-23T10:18:59;23.27;;;20.87;;
13872;SDS011;7006;51.494;11.964;2022-07-23T10:21:27;27.03;;;19.77;;
13872;SDS011;7006;51.494;11.964;2022-07-23T10:24:06;22.50;;;18.70;;
13872;SDS011;7006;51.494;11.964;2022-07-23T10:26:42;20.50;;;18.40;;
13872;SDS011;7006;51.494;11.964;2022-07-23T10:29:20;22.33;;;19.13;;
13872;SDS011;7006;51.494;11.964;2022-07-23T10:31:55;24.27;;;19.80;;
13872;SDS011;7006;51.494;11.964;2022-07-23T10:34:25;21.43;;;19.30;;
13872;SDS011;7006;51.494;11.964;2022-07-23T10:36:57;22.27;;;19.87;;
13872;SDS011;7006;51.494;11.964;2022-07-23T10:39:27;23.07;;;19.73;;
13872;SDS011;7006;51.494;11.964;2022-07-23T10:42:08;22.47;;;20.13;;
13872;SDS011;7006;51.494;11.964;2022-07-23T10:44:39;23.00;;;20.70;;
13872;SDS011;7006;51.494;11.964;2022-07-23T10:47:07;25.23;;;21.30;;
13872;SDS011;7006;51.494;11.964;2022-07-23T10:49:46;23.07;;;20.43;;
13872;SDS011;7006;51.494;11.964;2022-07-23T10:52:22;21.80;;;19.50;;
13872;SDS011;7006;51.494;11.964;2022-07-23T10:54:51;26.27;;;23.07;;
13872;SDS011;7006;51.494;11.964;2022-07-23T10:57:21;24.87;;;21.97;;
13872;SDS011;7006;51.494;11.964;2022-07-23T11:00:08;29.17;;;22.27;;
13872;SDS011;7006;51.494;11.964;2022-07-23T11:02:43;22.33;;;20.00;;
13872;SDS011;7006;51.494;11.964;2022-07-23T11:05:12;23.10;;;20.70;;
13872;SDS011;7006;51.494;11.964;2022-07-23T11:10:51;23.20;;;20.80;;
13872;SDS011;7006;51.494;11.964;2022-07-23T11:13:30;21.10;;;19.00;;
13872;SDS011;7006;51.494;11.964;2022-07-23T11:16:08;21.70;;;18.60;;
13872;SDS011;7006;51.494;11.964;2022-07-23T11:18:58;21.93;;;19.47;;
13872;SDS011;7006;51.494;11.964;2022-07-23T11:21:46;21.80;;;19.67;;
13872;SDS011;7006;51.494;11.964;2022-07-23T11:24:14;21.90;;;19.70;;
13872;SDS011;7006;51.494;11.964;2022-07-23T11:26:47;23.40;;;20.00;;
13872;SDS011;7006;51.494;11.964;2022-07-23T11:29:44;22.70;;;20.40;;
13872;SDS011;7006;51.494;11.964;2022-07-23T11:35:23;21.50;;;19.13;;
13872;SDS011;7006;51.494;11.964;2022-07-23T11:37:53;25.43;;;20.67;;
13872;SDS011;7006;51.494;11.964;2022-07-23T11:40:24;21.83;;;19.60;;
13872;SDS011;7006;51.494;11.964;2022-07-23T11:42:52;21.43;;;19.33;;
13872;SDS011;7006;51.494;11.964;2022-07-23T11:45:21;20.40;;;18.30;;
13872;SDS011;7006;51.494;11.964;2022-07-23T11:47:48;21.87;;;19.67;;
13872;SDS011;7006;51.494;11.964;2022-07-23T11:50:15;21.77;;;19.53;;
13872;SDS011;7006;51.494;11.964;2022-07-23T11:52:42;21.70;;;19.40;;
13872;SDS011;7006;51.494;11.964;2022-07-23T11:55:09;21.10;;;18.93;;
13872;SDS011;7006;51.494;11.964;2022-07-23T11:57:38;20.80;;;18.67;;
13872;SDS011;7006;51.494;11.964;2022-07-23T12:00:07;21.97;;;19.73;;
13872;SDS011;7006;51.494;11.964;2022-07-23T12:02:37;23.33;;;19.93;;
13872;SDS011;7006;51.494;11.964;2022-07-23T12:05:04;22.53;;;20.23;;
13872;SDS011;7006;51.494;11.964;2022-07-23T12:07:33;22.57;;;20.17;;
13872;SDS011;7006;51.494;11.964;2022-07-23T12:10:01;21.03;;;18.90;;
13872;SDS011;7006;51.494;11.964;2022-07-23T12:12:34;21.90;;;19.60;;
13872;SDS011;7006;51.494;11.964;2022-07-23T12:15:02;21.63;;;19.43;;
13872;SDS011;7006;51.494;11.964;2022-07-23T12:17:30;25.33;;;19.60;;
13872;SDS011;7006;51.494;11.964;2022-07-23T12:19:59;22.87;;;20.57;;
13872;SDS011;7006;51.494;11.964;2022-07-23T12:22:33;22.33;;;19.97;;
13872;SDS011;7006;51.494;11.964;2022-07-23T12:25:03;22.10;;;19.90;;
13872;SDS011;7006;51.494;11.964;2022-07-23T12:27:31;22.00;;;19.70;;
13872;SDS011;7006;51.494;11.964;2022-07-23T12:29:58;22.20;;;20.00;;
13872;SDS011;7006;51.494;11.964;2022-07-23T12:32:25;22.70;;;20.40;;
13872;SDS011;7006;51.494;11.964;2022-07-23T12:35:03;21.90;;;19.60;;
13872;SDS011;7006;51.494;11.964;2022-07-23T12:37:32;22.87;;;20.57;;
13872;SDS011;7006;51.494;11.964;2022-07-23T12:42:49;22.40;;;20.10;;
13872;SDS011;7006;51.494;11.964;2022-07-23T12:45:17;22.17;;;19.80;;
13872;SDS011;7006;51.494;11.964;2022-07-23T12:47:57;23.60;;;21.30;;
13872;SDS011;7006;51.494;11.964;2022-07-23T12:50:35;21.87;;;19.77;;
13872;SDS011;7006;51.494;11.964;2022-07-23T12:53:10;22.10;;;19.90;;
13872;SDS011;7006;51.494;11.964;2022-07-23T12:55:38;20.90;;;18.70;;
13872;SDS011;7006;51.494;11.964;2022-07-23T12:58:06;22.40;;;20.13;;
13872;SDS011;7006;51.494;11.964;2022-07-23T13:03:32;21.10;;;19.00;;
13872;SDS011;7006;51.494;11.964;2022-07-23T13:06:02;21.47;;;19.30;;
13872;SDS011;7006;51.494;11.964;2022-07-23T13:08:31;22.63;;;20.37;;
13872;SDS011;7006;51.494;11.964;2022-07-23T13:10:58;20.70;;;18.80;;
13872;SDS011;7006;51.494;11.964;2022-07-23T13:13:25;23.60;;;21.30;;
13872;SDS011;7006;51.494;11.964;2022-07-23T13:15:52;22.33;;;20.20;;
13872;SDS011;7006;51.494;11.964;2022-07-23T13:18:19;20.60;;;18.53;;
13872;SDS011;7006;51.494;11.964;2022-07-23T13:20:46;23.90;;;21.60;;
13872;SDS011;7006;51.494;11.964;2022-07-23T13:23:15;21.00;;;19.00;;
13872;SDS011;7006;51.494;11.964;2022-07-23T13:25:42;21.53;;;19.43;;
13872;SDS011;7006;51.494;11.964;2022-07-23T13:28:08;21.47;;;19.57;;
13872;SDS011;7006;51.494;11.964;2022-07-23T13:30:35;21.73;;;19.53;;
13872;SDS011;7006;51.494;11.964;2022-07-23T13:33:03;22.87;;;20.70;;
13872;SDS011;7006;51.494;11.964;2022-07-23T13:35:30;23.00;;;20.60;;
13872;SDS011;7006;51.494;11.964;2022-07-23T13:37:56;22.27;;;20.20;;
13872;SDS011;7006;51.494;11.964;2022-07-23T13:40:24;22.30;;;19.87;;
13872;SDS011;7006;51.494;11.964;2022-07-23T13:42:51;20.30;;;18.40;;
13872;SDS011;7006;51.494;11.964;2022-07-23T13:45:17;21.73;;;19.77;;
13872;SDS011;7006;51.494;11.964;2022-07-23T13:47:44;21.60;;;19.50;;
13872;SDS011;7006;51.494;11.964;2022-07-23T13:50:10;20.17;;;18.37;;
13872;SDS011;7006;51.494;11.964;2022-07-23T13:52:41;21.37;;;19.40;;
13872;SDS011;7006;51.494;11.964;2022-07-23T13:55:07;22.93;;;19.50;;
13872;SDS011;7006;51.494;11.964;2022-07-23T13:57:35;22.00;;;19.80;;
13872;SDS011;7006;51.494;11.964;2022-07-23T14:00:03;22.40;;;20.37;;
13872;SDS011;7006;51.494;11.964;2022-07-23T14:02:31;20.87;;;18.80;;
13872;SDS011;7006;51.494;11.964;2022-07-23T14:04:57;19.90;;;18.10;;
13872;SDS011;7006;51.494;11.964;2022-07-23T14:07:24;20.33;;;18.43;;
13872;SDS011;7006;51.494;11.964;2022-07-23T14:09:50;22.07;;;19.73;;
13872;SDS011;7006;51.494;11.964;2022-07-23T14:12:17;19.30;;;17.50;;
13872;SDS011;7006;51.494;11.964;2022-07-23T14:14:45;20.23;;;18.23;;
13872;SDS011;7006;51.494;11.964;2022-07-23T14:17:12;19.50;;;17.80;;
13872;SDS011;7006;51.494;11.964;2022-07-23T14:19:39;17.73;;;16.13;;
13872;SDS011;7006;51.494;11.964;2022-07-23T14:22:05;19.00;;;17.03;;
13872;SDS011;7006;51.494;11.964;2022-07-23T14:24:32;19.97;;;18.17;;
13872;SDS011;7006;51.494;11.964;2022-07-23T14:26:59;17.83;;;16.23;;
13872;SDS011;7006;51.494;11.964;2022-07-23T14:29:26;18.97;;;17.37;;
13872;SDS011;7006;51.494;11.964;2022-07-23T14:31:54;18.17;;;16.43;;
13872;SDS011;7006;51.494;11.964;2022-07-23T14:34:21;18.80;;;17.13;;
13872;SDS011;7006;51.494;11.964;2022-07-23T14:36:47;17.80;;;16.10;;
13872;SDS011;7006;51.494;11.964;2022-07-23T14:39:14;17.47;;;15.97;;
13872;SDS011;7006;51.494;11.964;2022-07-23T14:41:40;17.00;;;15.40;;
13872;SDS011;7006;51.494;11.964;2022-07-23T14:44:07;17.10;;;15.50;;